Historique des mesures à Cassis (13260), France
Quotidien Résumé Fevrier 15, 2017 Unités:  Métrique    US   Métrique/US
« Précédent (Jour)
Suivant (Jour) »
Quotidien Hebdomadaire Mensuel Annuel Période au choix
  Maximum: Minimum: Moyenne:
Température: TemperatureC °C 11.9 °C 14.2 °C
Point de rosée: DewpointC °C 5.6 °C 7 °C
Humidité: Humidity % 56 % 58 %
Vitesse du vent: 0 km/h 0 km/h 0.5 km/h
Rafales: 0 km/h - -
Vent:- - SE
Pression: PressurehPa hPa 1028.0 hPa -
Précipitations: 0.0 mm    
Historical Graphs
 
 
Mesures pour : Fevrier 15, 2017
Heure Temperature Point de rosée Pression Vent Vitesse du vent Rafales Humidité Pluie (par heure) Conditions
TemperatureC °C DewpointC °C PressurehPa hPa Calm     Humidity % HourlyPrecipMM mm SoftwareType W/m2
00:11 14.4 °C 6.0 °C 1028.0 hPa Calm   14 km/h 57 % 0.0 mm open2300-1.11 W/m2
01:10 14.4 °C 5.7 °C 1028.3 hPa Calm   6.9 km/h 56 % 0.0 mm open2300-1.11 W/m2
02:11 14.3 °C 5.6 °C 1028.7 hPa Calm     56 % 0.0 mm open2300-1.11 W/m2
03:10 14.1 °C 5.7 °C 1029.0 hPa Calm     57 % 0.0 mm open2300-1.11 W/m2
04:11 14.1 °C 5.7 °C 1028.7 hPa Calm   5.6 km/h 57 % 0.0 mm open2300-1.11 W/m2
05:10 14.1 °C 6.0 °C 1029.0 hPa ESE 4.2 km/h 4.2 km/h 58 % 0.0 mm open2300-1.11 W/m2
06:11 14.2 °C 6.1 °C 1029.3 hPa Calm   6.4 km/h 58 % 0.0 mm open2300-1.11 W/m2
07:10 14.2 °C 5.8 °C 1029.7 hPa Calm   4.2 km/h 57 % 0.0 mm open2300-1.11 W/m2
08:11 13.9 °C 6.1 °C 1030.0 hPa Calm     59 % 0.0 mm open2300-1.11 W/m2
09:10 14.1 °C 6.5 °C 1030.7 hPa Calm     60 % 0.0 mm open2300-1.11 W/m2
10:11 14.8 °C 6.8 °C 1031.4 hPa Calm     59 % 0.0 mm open2300-1.11 W/m2
11:10 16.2 °C 7.7 °C 1031.4 hPa Calm   6.4 km/h 57 % 0.0 mm open2300-1.11 W/m2
12:11 17.1 °C 8.5 °C 1031.4 hPa Calm   1.8 km/h 57 % 0.0 mm open2300-1.11 W/m2
13:10 16.9 °C 8.6 °C 1031.4 hPa SSE 6.4 km/h 6.4 km/h 58 % 0.0 mm open2300-1.11 W/m2
14:11 17.3 °C 8.9 °C 1030.7 hPa Calm     58 % 0.0 mm open2300-1.11 W/m2
15:10 17.1 °C 9.0 °C 1031.0 hPa Calm     59 % 0.0 mm open2300-1.11 W/m2
16:11 16.9 °C 8.8 °C 1031.0 hPa Calm     59 % 0.0 mm open2300-1.11 W/m2
17:10 16.2 °C 8.9 °C 1030.7 hPa Calm     62 % 0.0 mm open2300-1.11 W/m2
18:11 15.4 °C 9.1 °C 1031.0 hPa Calm     66 % 0.0 mm open2300-1.11 W/m2
19:10 14.4 °C 8.6 °C 1031.0 hPa Calm     68 % 0.0 mm open2300-1.11 W/m2
20:11 13.0 °C 7.9 °C 1030.7 hPa Calm     71 % 0.0 mm open2300-1.11 W/m2
21:10 12.4 °C 7.7 °C 1030.7 hPa Calm     73 % 0.0 mm open2300-1.11 W/m2
22:11 11.9 °C 7.8 °C 1030.7 hPa Calm     76 % 0.0 mm open2300-1.11 W/m2
Observations météo à CASSIS
WU-History script by Weather Underground - 1 mb